Time;durP1;ratioP1;P1;durP2;ratioP2;P2;SDS_P1;SDS_P2;PMS_P1;PMS_P2;Temp;Humidity;BMP_temperature;BMP_pressure;BME280_temperature;BME280_humidity;BME280_pressure;Samples;Min_cycle;Max_cycle;Signal;HPM_P1;HPM_P2
2022/10/15 00:01:22;;;;;;;3.63;2.60;;;14.60;99.90;;;;;;5015641;28;20451;-65
2022/10/15 00:03:49;;;;;;;2.90;1.87;;;14.70;99.90;;;;;;5015784;28;20489;-64
2022/10/15 00:06:19;;;;;;;3.80;2.33;;;14.70;99.90;;;;;;5015587;28;20439;-64
2022/10/15 00:08:47;;;;;;;4.90;2.37;;;14.70;99.90;;;;;;5015593;28;20513;-65
2022/10/15 00:11:17;;;;;;;3.70;2.00;;;14.70;99.90;;;;;;5014956;28;20447;-64
2022/10/15 00:13:44;;;;;;;5.70;1.83;;;14.70;99.90;;;;;;5015176;28;20537;-64
2022/10/15 00:16:13;;;;;;;2.20;1.23;;;14.70;99.90;;;;;;5015185;28;21384;-64
2022/10/15 00:18:41;;;;;;;5.97;1.60;;;14.70;99.90;;;;;;5015086;28;20451;-64
2022/10/15 00:21:08;;;;;;;2.87;2.00;;;14.70;99.90;;;;;;5015133;28;20936;-64
2022/10/15 00:23:37;;;;;;;2.70;1.70;;;14.70;99.90;;;;;;5015247;28;20447;-64
2022/10/15 00:26:07;;;;;;;2.80;1.90;;;14.70;99.90;;;;;;5015032;28;20511;-64
2022/10/15 00:28:34;;;;;;;5.03;1.73;;;14.70;99.90;;;;;;5014733;28;20443;-64
2022/10/15 00:31:03;;;;;;;3.37;2.30;;;14.70;99.90;;;;;;5015077;28;20442;-64
2022/10/15 00:33:30;;;;;;;4.20;2.83;;;14.70;99.90;;;;;;5014709;28;20536;-64
2022/10/15 00:36:06;;;;;;;3.10;2.10;;;14.70;99.90;;;;;;5014503;28;20910;-64
2022/10/15 00:38:33;;;;;;;2.77;1.97;;;14.70;99.90;;;;;;5013814;28;20861;-64
2022/10/15 00:41:02;;;;;;;2.93;2.03;;;14.70;99.90;;;;;;5014774;28;20445;-65
2022/10/15 00:43:42;;;;;;;2.73;1.67;;;14.70;99.90;;;;;;5014802;28;20498;-64
2022/10/15 00:46:17;;;;;;;3.00;1.53;;;14.70;99.90;;;;;;5014911;28;20438;-64
2022/10/15 00:48:48;;;;;;;2.27;1.63;;;14.70;99.90;;;;;;5014627;28;20438;-64
2022/10/15 00:51:17;;;;;;;4.60;2.60;;;14.70;99.90;;;;;;5014874;28;20501;-64
2022/10/15 00:53:44;;;;;;;4.43;3.70;;;14.70;99.90;;;;;;5014266;28;20495;-64
2022/10/15 00:56:15;;;;;;;3.83;2.63;;;14.70;99.90;;;;;;5014448;28;20889;-64
2022/10/15 00:58:42;;;;;;;5.00;2.83;;;14.70;99.90;;;;;;5014603;28;20455;-64
2022/10/15 01:01:09;;;;;;;5.27;2.70;;;14.70;99.90;;;;;;5014170;28;20442;-64
2022/10/15 01:03:37;;;;;;;6.63;5.30;;;14.70;99.90;;;;;;5014375;28;20478;-65
2022/10/15 01:06:04;;;;;;;5.50;4.90;;;14.70;99.90;;;;;;5014362;28;20450;-64
2022/10/15 01:08:31;;;;;;;4.90;2.53;;;14.60;99.90;;;;;;5014289;28;20443;-64
2022/10/15 01:11:10;;;;;;;2.53;1.70;;;14.70;99.90;;;;;;5013953;28;20454;-65
2022/10/15 01:13:49;;;;;;;4.37;2.30;;;14.60;99.90;;;;;;5014149;28;20487;-64
2022/10/15 01:16:21;;;;;;;5.07;2.33;;;14.60;99.90;;;;;;5014394;28;20446;-64
2022/10/15 01:18:57;;;;;;;4.10;2.10;;;14.60;99.90;;;;;;5014366;28;20918;-64
2022/10/15 01:21:34;;;;;;;2.70;1.90;;;14.60;99.90;;;;;;5014244;28;20493;-66
2022/10/15 01:24:37;;;;;;;2.67;1.50;;;14.60;99.90;;;;;;5013870;28;20496;-64
2022/10/15 01:27:27;;;;;;;5.07;2.10;;;14.60;99.90;;;;;;5014153;28;20435;-64
2022/10/15 01:30:23;;;;;;;3.20;2.20;;;14.60;99.90;;;;;;5013856;28;20900;-64
2022/10/15 01:33:03;;;;;;;2.30;1.57;;;14.60;99.90;;;;;;5014128;28;20534;-64
2022/10/15 01:35:37;;;;;;;3.93;1.70;;;14.50;99.90;;;;;;5014092;28;20496;-65
2022/10/15 01:38:14;;;;;;;3.03;1.80;;;14.50;99.90;;;;;;5013618;28;20458;-64
2022/10/15 01:40:47;;;;;;;3.53;1.67;;;14.50;99.90;;;;;;5013745;28;20899;-64
2022/10/15 01:43:21;;;;;;;2.50;1.30;;;14.50;99.90;;;;;;5013885;28;20497;-64
2022/10/15 01:45:52;;;;;;;2.10;1.20;;;14.50;99.90;;;;;;5013760;28;20526;-64
2022/10/15 01:48:22;;;;;;;2.30;1.20;;;14.50;99.90;;;;;;5013742;28;20442;-64
2022/10/15 01:50:57;;;;;;;2.90;1.60;;;14.50;99.90;;;;;;5013737;28;20450;-64
2022/10/15 01:53:26;;;;;;;2.00;1.10;;;14.50;99.90;;;;;;5013540;28;20481;-64
2022/10/15 01:55:57;;;;;;;2.50;1.43;;;14.50;99.90;;;;;;5013449;28;20925;-64
2022/10/15 01:58:26;;;;;;;7.33;1.10;;;14.60;99.90;;;;;;5013630;28;20439;-65
2022/10/15 02:00:55;;;;;;;3.60;1.50;;;14.60;99.90;;;;;;5013448;28;20501;-65
2022/10/15 02:03:24;;;;;;;2.50;1.40;;;14.60;99.90;;;;;;5013735;28;20566;-66
2022/10/15 02:05:56;;;;;;;2.77;1.27;;;14.50;99.90;;;;;;5013267;28;20910;-64
2022/10/15 02:08:30;;;;;;;4.10;1.50;;;14.40;99.90;;;;;;5013036;28;20442;-65
2022/10/15 02:11:04;;;;;;;2.40;1.23;;;14.40;99.90;;;;;;5013395;28;20446;-65
2022/10/15 02:13:43;;;;;;;2.37;1.50;;;14.40;99.90;;;;;;5013275;28;20560;-64
2022/10/15 02:16:14;;;;;;;2.20;1.40;;;14.40;99.90;;;;;;5013258;28;20546;-64
2022/10/15 02:18:49;;;;;;;2.57;1.47;;;14.40;99.90;;;;;;5013295;28;20438;-64
2022/10/15 02:21:21;;;;;;;3.20;1.33;;;14.30;99.90;;;;;;5013372;28;20489;-64
2022/10/15 02:23:52;;;;;;;3.07;1.60;;;14.30;99.90;;;;;;5013131;28;20781;-64
2022/10/15 02:26:21;;;;;;;3.03;1.40;;;14.30;99.90;;;;;;5013067;28;20914;-64
2022/10/15 02:28:52;;;;;;;2.80;1.13;;;14.30;99.90;;;;;;5013069;28;20439;-64
2022/10/15 02:31:21;;;;;;;4.00;1.80;;;14.20;99.90;;;;;;5013273;28;20503;-64
2022/10/15 02:33:52;;;;;;;3.50;1.50;;;14.20;99.90;;;;;;5012929;28;21050;-64
2022/10/15 02:36:19;;;;;;;5.37;1.40;;;14.20;99.90;;;;;;5012741;28;20814;-64
2022/10/15 02:38:48;;;;;;;3.50;1.10;;;14.20;99.90;;;;;;5012669;28;20453;-64
2022/10/15 02:41:16;;;;;;;2.10;1.10;;;14.20;99.90;;;;;;5012698;28;20454;-65
2022/10/15 02:43:43;;;;;;;2.47;1.40;;;14.10;99.90;;;;;;5012859;28;20442;-64
2022/10/15 02:46:13;;;;;;;3.83;1.50;;;14.10;99.90;;;;;;5012661;28;20442;-64
2022/10/15 02:48:40;;;;;;;2.90;1.20;;;14.00;99.90;;;;;;5012801;28;20945;-64
2022/10/15 02:51:08;;;;;;;3.20;1.20;;;14.00;99.90;;;;;;5012967;28;20837;-65
2022/10/15 02:53:35;;;;;;;2.73;1.10;;;14.00;99.90;;;;;;5012639;28;20482;-65
2022/10/15 02:56:02;;;;;;;2.27;1.17;;;14.10;99.90;;;;;;5012506;28;20443;-64
2022/10/15 02:58:29;;;;;;;6.73;1.30;;;14.00;99.90;;;;;;5012723;28;20450;-64
2022/10/15 03:00:56;;;;;;;2.37;1.17;;;14.10;99.90;;;;;;5012980;28;20466;-66
2022/10/15 03:03:23;;;;;;;1.70;0.87;;;14.10;99.90;;;;;;5012533;28;20438;-64
2022/10/15 03:05:50;;;;;;;2.83;1.07;;;13.90;99.90;;;;;;5012821;28;20443;-64
2022/10/15 03:08:19;;;;;;;1.90;0.90;;;14.00;99.90;;;;;;5012682;28;20497;-65
2022/10/15 03:10:46;;;;;;;2.70;0.90;;;14.00;99.90;;;;;;5012568;28;20443;-65
2022/10/15 03:13:13;;;;;;;1.70;0.90;;;14.00;99.90;;;;;;5012478;28;20485;-64
2022/10/15 03:15:40;;;;;;;2.20;1.57;;;14.10;99.90;;;;;;5012638;28;20451;-64
2022/10/15 03:18:08;;;;;;;2.00;1.00;;;14.10;99.90;;;;;;5011993;28;20439;-64
2022/10/15 03:20:35;;;;;;;2.83;1.10;;;14.10;99.90;;;;;;5013024;28;20926;-64
2022/10/15 03:23:02;;;;;;;3.23;1.33;;;14.10;99.90;;;;;;5015861;28;20489;-65
2022/10/15 03:25:31;;;;;;;1.90;1.00;;;14.20;99.90;;;;;;5016266;28;20512;-64
2022/10/15 03:27:57;;;;;;;2.10;1.10;;;14.10;99.90;;;;;;5015906;28;20505;-65
2022/10/15 03:30:24;;;;;;;2.20;1.20;;;14.10;99.90;;;;;;5016113;28;20451;-64
2022/10/15 03:32:51;;;;;;;2.10;1.10;;;14.10;99.90;;;;;;5016243;28;20442;-64
2022/10/15 03:35:18;;;;;;;3.97;1.17;;;14.10;99.90;;;;;;5016210;28;21393;-64
2022/10/15 03:37:45;;;;;;;5.90;1.17;;;14.10;99.90;;;;;;5016027;28;20466;-64
2022/10/15 03:40:12;;;;;;;4.90;1.50;;;14.10;99.90;;;;;;5015975;28;20604;-64
2022/10/15 03:42:41;;;;;;;2.30;1.30;;;14.10;99.90;;;;;;5016016;28;20442;-64
2022/10/15 03:45:09;;;;;;;2.93;1.30;;;14.20;99.90;;;;;;5015831;28;20509;-64
2022/10/15 03:47:36;;;;;;;3.00;1.70;;;14.10;99.90;;;;;;5015869;28;20601;-64
2022/10/15 03:50:04;;;;;;;1.97;0.93;;;14.20;99.90;;;;;;5016006;28;20910;-64
2022/10/15 03:52:31;;;;;;;1.70;0.80;;;14.20;99.90;;;;;;5015883;28;20918;-64
2022/10/15 03:54:58;;;;;;;3.53;1.70;;;14.30;99.90;;;;;;5015625;28;20518;-64
2022/10/15 03:57:25;;;;;;;3.27;1.00;;;14.30;99.90;;;;;;5015771;28;20443;-64
2022/10/15 03:59:53;;;;;;;3.77;1.67;;;14.30;99.90;;;;;;5015724;28;20496;-64
2022/10/15 04:02:20;;;;;;;2.30;0.80;;;14.30;99.90;;;;;;5015845;28;20852;-64
2022/10/15 04:04:47;;;;;;;1.50;0.70;;;14.40;99.90;;;;;;5015955;28;20443;-64
2022/10/15 04:07:14;;;;;;;2.30;0.70;;;14.40;99.90;;;;;;5015717;28;20438;-64
2022/10/15 04:09:41;;;;;;;1.63;0.60;;;14.50;99.90;;;;;;5015482;28;20439;-65
2022/10/15 04:12:08;;;;;;;2.00;0.90;;;14.50;99.90;;;;;;5015946;28;20520;-64
2022/10/15 04:14:35;;;;;;;2.47;1.10;;;14.50;99.90;;;;;;5015590;28;20486;-64
2022/10/15 04:17:03;;;;;;;2.60;1.40;;;14.60;99.90;;;;;;5015530;28;20497;-64
2022/10/15 04:19:30;;;;;;;2.07;0.93;;;14.50;99.90;;;;;;5015310;28;20792;-64
2022/10/15 04:21:57;;;;;;;1.40;0.50;;;14.60;99.90;;;;;;5015486;28;20450;-64
2022/10/15 04:24:24;;;;;;;2.60;0.70;;;14.60;99.90;;;;;;5015254;28;20439;-65
2022/10/15 04:26:52;;;;;;;2.63;0.80;;;14.70;99.90;;;;;;5015140;28;20506;-64
2022/10/15 04:29:19;;;;;;;1.50;0.53;;;14.70;99.90;;;;;;5015438;28;20500;-66
2022/10/15 04:31:46;;;;;;;1.50;0.60;;;14.70;99.90;;;;;;5015121;28;20497;-65
2022/10/15 04:34:14;;;;;;;2.37;0.80;;;14.70;99.90;;;;;;5015147;28;20576;-64
2022/10/15 04:36:41;;;;;;;1.60;0.80;;;14.70;99.90;;;;;;5014818;28;20516;-65
2022/10/15 04:39:08;;;;;;;1.63;0.63;;;14.80;99.90;;;;;;5015349;28;20446;-65
2022/10/15 04:41:35;;;;;;;3.80;1.60;;;14.80;99.90;;;;;;5014979;28;20474;-64
2022/10/15 04:44:02;;;;;;;3.37;2.23;;;14.90;99.90;;;;;;5015099;28;20474;-65
2022/10/15 04:46:29;;;;;;;2.23;1.20;;;14.90;99.90;;;;;;5015006;28;20484;-64
2022/10/15 04:48:57;;;;;;;1.80;0.80;;;14.90;99.90;;;;;;5014943;28;20850;-65
2022/10/15 04:51:26;;;;;;;2.13;0.90;;;14.90;99.90;;;;;;5015067;28;20529;-65
2022/10/15 04:53:54;;;;;;;2.57;0.70;;;14.90;99.90;;;;;;5014761;28;20486;-65
2022/10/15 04:56:22;;;;;;;1.80;0.90;;;14.90;99.90;;;;;;5015019;28;20513;-64
2022/10/15 04:58:50;;;;;;;1.80;0.60;;;14.90;99.90;;;;;;5015069;28;20436;-64
2022/10/15 05:01:19;;;;;;;2.30;0.80;;;14.90;99.90;;;;;;5014916;28;20458;-65
2022/10/15 05:03:48;;;;;;;3.10;1.73;;;14.90;99.90;;;;;;5014841;28;20443;-64
2022/10/15 05:06:17;;;;;;;5.00;2.47;;;14.80;99.90;;;;;;5014851;28;20444;-65
2022/10/15 05:08:46;;;;;;;2.03;1.00;;;14.90;99.90;;;;;;5014655;28;20930;-65
2022/10/15 05:11:15;;;;;;;2.67;1.30;;;14.90;99.90;;;;;;5014431;28;20490;-64
2022/10/15 05:13:43;;;;;;;2.10;0.80;;;14.90;99.90;;;;;;5014090;28;20555;-64
2022/10/15 05:16:12;;;;;;;3.17;2.30;;;14.90;99.90;;;;;;5014423;28;20447;-64
2022/10/15 05:18:40;;;;;;;1.60;0.50;;;15.00;99.90;;;;;;5014047;28;20853;-64
2022/10/15 05:21:07;;;;;;;1.90;0.80;;;15.00;99.90;;;;;;5014344;28;21000;-64
2022/10/15 05:23:35;;;;;;;2.10;0.80;;;15.00;99.90;;;;;;5014408;28;20790;-64
2022/10/15 05:26:05;;;;;;;1.77;0.80;;;15.10;99.90;;;;;;5014336;28;20442;-64
2022/10/15 05:28:33;;;;;;;2.50;0.90;;;15.10;99.90;;;;;;5014472;28;20446;-65
2022/10/15 05:31:04;;;;;;;3.03;0.70;;;15.10;99.90;;;;;;5014295;28;20823;-65
2022/10/15 05:33:32;;;;;;;1.70;0.70;;;15.10;99.90;;;;;;5014401;28;20497;-64
2022/10/15 05:36:08;;;;;;;1.67;0.60;;;15.10;99.90;;;;;;5013705;28;20482;-64
2022/10/15 05:38:35;;;;;;;1.50;0.60;;;15.10;99.90;;;;;;5014158;28;20497;-64
2022/10/15 05:41:04;;;;;;;1.80;0.80;;;15.20;99.90;;;;;;5013761;28;20443;-65
2022/10/15 05:43:31;;;;;;;1.53;0.70;;;15.20;99.90;;;;;;5013386;28;20435;-64
2022/10/15 05:45:58;;;;;;;2.10;1.10;;;15.20;99.90;;;;;;5014067;28;20993;-64
2022/10/15 05:48:25;;;;;;;3.43;1.83;;;15.20;99.90;;;;;;5014120;28;20432;-65
2022/10/15 05:50:52;;;;;;;2.57;1.73;;;15.20;99.90;;;;;;5014109;28;20443;-64
2022/10/15 05:53:19;;;;;;;2.00;1.43;;;15.20;99.90;;;;;;5013681;28;20494;-65
2022/10/15 05:55:46;;;;;;;3.70;1.40;;;15.20;99.90;;;;;;5013620;28;20526;-65
2022/10/15 05:58:14;;;;;;;1.97;0.90;;;15.20;99.90;;;;;;5013773;28;20841;-65
2022/10/15 06:00:41;;;;;;;2.67;1.03;;;15.20;99.90;;;;;;5013474;28;20933;-64
2022/10/15 06:03:13;;;;;;;1.70;0.83;;;15.20;99.90;;;;;;5013819;28;20462;-65
2022/10/15 06:05:40;;;;;;;2.80;1.30;;;15.30;99.90;;;;;;5013866;28;20535;-64
2022/10/15 06:08:07;;;;;;;8.43;1.07;;;15.30;99.90;;;;;;5013684;28;20503;-64
2022/10/15 06:10:37;;;;;;;2.20;0.90;;;15.30;99.90;;;;;;5013736;28;20499;-64
2022/10/15 06:13:04;;;;;;;2.07;0.77;;;15.30;99.90;;;;;;5013713;28;20445;-64
2022/10/15 06:15:33;;;;;;;1.90;1.07;;;15.30;99.90;;;;;;5013729;28;20557;-64
2022/10/15 06:18:00;;;;;;;1.90;0.73;;;15.30;99.90;;;;;;5013674;28;20448;-64
2022/10/15 06:20:27;;;;;;;2.53;0.73;;;15.30;99.90;;;;;;5013532;28;20934;-65
2022/10/15 06:22:58;;;;;;;2.10;0.90;;;15.40;99.90;;;;;;5013304;28;20443;-65
2022/10/15 06:25:25;;;;;;;1.90;1.17;;;15.40;99.90;;;;;;5013560;28;20449;-64
2022/10/15 06:27:52;;;;;;;1.50;0.60;;;15.40;99.90;;;;;;5013573;28;20521;-64
2022/10/15 06:30:20;;;;;;;1.90;0.60;;;15.40;99.90;;;;;;5013573;28;20439;-64
2022/10/15 06:32:49;;;;;;;2.50;1.80;;;15.40;99.90;;;;;;5013187;28;20470;-64
2022/10/15 06:35:18;;;;;;;2.80;1.70;;;15.40;99.90;;;;;;5013318;28;20578;-64
2022/10/15 06:37:45;;;;;;;3.60;1.70;;;15.50;99.90;;;;;;5013157;28;20523;-64
2022/10/15 06:40:13;;;;;;;3.30;0.97;;;15.50;99.90;;;;;;5013424;28;20446;-64
2022/10/15 06:42:40;;;;;;;2.40;0.80;;;15.60;99.90;;;;;;5013338;28;20442;-64
2022/10/15 06:45:08;;;;;;;1.80;0.80;;;15.60;99.90;;;;;;5013313;28;20441;-64
2022/10/15 06:47:36;;;;;;;2.43;1.40;;;15.60;99.90;;;;;;5013060;28;20438;-64
2022/10/15 06:50:05;;;;;;;3.63;1.27;;;15.60;99.90;;;;;;5012925;28;20445;-64
2022/10/15 06:52:32;;;;;;;3.10;2.00;;;15.60;99.90;;;;;;5013341;28;20793;-65
2022/10/15 06:54:59;;;;;;;3.07;2.20;;;15.60;99.90;;;;;;5014136;28;20829;-65
2022/10/15 06:57:27;;;;;;;2.70;1.97;;;15.70;99.90;;;;;;5016932;28;20444;-65
2022/10/15 06:59:54;;;;;;;3.70;2.30;;;15.70;99.90;;;;;;5017311;28;20439;-65
2022/10/15 07:02:23;;;;;;;3.07;2.00;;;15.70;99.90;;;;;;5017086;28;20440;-64
2022/10/15 07:04:50;;;;;;;2.53;1.27;;;15.80;99.90;;;;;;5017254;28;20456;-64
2022/10/15 07:07:20;;;;;;;2.07;1.23;;;15.80;99.90;;;;;;5017093;28;20467;-65
2022/10/15 07:09:47;;;;;;;2.73;1.53;;;15.90;99.90;;;;;;5016287;28;20448;-65
2022/10/15 07:12:15;;;;;;;2.23;0.90;;;15.90;99.90;;;;;;5016710;28;20524;-64
2022/10/15 07:14:42;;;;;;;2.13;0.97;;;15.90;99.90;;;;;;5016883;28;20519;-64
2022/10/15 07:17:09;;;;;;;3.40;0.80;;;15.90;99.90;;;;;;5016668;28;20441;-65
2022/10/15 07:19:36;;;;;;;3.73;0.70;;;16.00;99.90;;;;;;5016629;28;20928;-64
2022/10/15 07:22:03;;;;;;;1.60;0.60;;;16.00;99.90;;;;;;5016816;28;20441;-65
2022/10/15 07:24:31;;;;;;;1.87;0.60;;;16.00;99.90;;;;;;5016378;28;20539;-66
2022/10/15 07:26:58;;;;;;;3.20;0.70;;;16.10;99.90;;;;;;5016656;28;20444;-65
2022/10/15 07:29:25;;;;;;;1.60;0.60;;;16.10;99.90;;;;;;5016662;28;20858;-66
2022/10/15 07:31:52;;;;;;;2.70;0.73;;;16.10;99.90;;;;;;5016266;28;20433;-64
2022/10/15 07:34:20;;;;;;;1.57;0.70;;;16.10;99.90;;;;;;5016331;28;20443;-64
2022/10/15 07:36:47;;;;;;;1.70;0.60;;;16.10;99.90;;;;;;5015864;28;21025;-65
2022/10/15 07:39:16;;;;;;;1.63;0.60;;;16.20;99.90;;;;;;5016383;28;20446;-64
2022/10/15 07:41:45;;;;;;;2.03;0.80;;;16.20;99.90;;;;;;5016404;28;20927;-64
2022/10/15 07:44:12;;;;;;;1.83;0.73;;;16.30;99.90;;;;;;5016341;28;20452;-65
2022/10/15 07:46:39;;;;;;;1.80;0.83;;;16.30;99.90;;;;;;5016215;28;20496;-65
2022/10/15 07:49:06;;;;;;;1.87;0.93;;;16.40;99.90;;;;;;5016261;28;20453;-65
2022/10/15 07:51:33;;;;;;;2.43;0.80;;;16.40;99.90;;;;;;5016212;28;20853;-64
2022/10/15 07:54:00;;;;;;;2.73;1.10;;;16.40;99.90;;;;;;5016159;28;20781;-65
2022/10/15 07:56:27;;;;;;;2.83;0.80;;;16.50;99.90;;;;;;5016220;28;20813;-64
2022/10/15 07:58:55;;;;;;;1.90;0.70;;;16.50;99.90;;;;;;5016136;28;20436;-65
2022/10/15 08:01:23;;;;;;;1.90;0.70;;;16.50;99.90;;;;;;5016152;28;20844;-66
2022/10/15 08:03:50;;;;;;;1.97;0.70;;;16.50;99.90;;;;;;5015973;28;20442;-64
2022/10/15 08:06:18;;;;;;;1.90;0.70;;;16.60;99.90;;;;;;5015394;28;20529;-64
2022/10/15 08:08:45;;;;;;;2.20;0.67;;;16.60;99.90;;;;;;5015638;28;20438;-65
2022/10/15 08:11:13;;;;;;;1.83;0.63;;;16.60;99.90;;;;;;5016023;28;20446;-64
2022/10/15 08:13:42;;;;;;;1.73;0.60;;;16.70;99.90;;;;;;5015899;28;20445;-65
2022/10/15 08:16:12;;;;;;;1.93;0.67;;;16.70;99.90;;;;;;5015682;28;20539;-64
2022/10/15 08:18:40;;;;;;;1.50;0.60;;;16.80;99.90;;;;;;5015830;28;20456;-64
2022/10/15 08:21:08;;;;;;;2.27;0.60;;;16.80;99.90;;;;;;5015779;28;20429;-65
2022/10/15 08:23:35;;;;;;;1.70;0.70;;;16.80;99.90;;;;;;5015766;28;20956;-64
2022/10/15 08:26:02;;;;;;;1.70;0.60;;;16.90;99.90;;;;;;5015496;28;20492;-64
2022/10/15 08:28:30;;;;;;;2.73;0.63;;;17.00;99.90;;;;;;5015439;28;20449;-64
2022/10/15 08:30:58;;;;;;;1.80;0.73;;;17.00;99.90;;;;;;5015745;28;20453;-65
2022/10/15 08:33:27;;;;;;;1.70;0.80;;;17.00;99.90;;;;;;5015450;28;20448;-65
2022/10/15 08:35:54;;;;;;;2.00;0.70;;;17.10;99.90;;;;;;5015258;28;21083;-66
2022/10/15 08:38:21;;;;;;;2.00;0.80;;;17.20;99.90;;;;;;5015618;28;20454;-65
2022/10/15 08:40:49;;;;;;;2.13;0.83;;;17.30;99.90;;;;;;5015119;28;20439;-64
2022/10/15 08:43:21;;;;;;;1.70;0.80;;;17.40;99.90;;;;;;5015044;28;20443;-65
2022/10/15 08:45:51;;;;;;;2.07;0.77;;;17.50;99.90;;;;;;5015121;28;20438;-65
2022/10/15 08:48:23;;;;;;;1.97;0.90;;;17.60;99.90;;;;;;5015421;28;20454;-65
2022/10/15 08:50:59;;;;;;;2.07;0.90;;;17.70;99.90;;;;;;5015086;28;20489;-65
2022/10/15 08:53:28;;;;;;;3.10;1.00;;;17.80;99.50;;;;;;5015224;28;20454;-65
2022/10/15 08:55:58;;;;;;;2.10;0.87;;;18.00;98.80;;;;;;5014523;28;20532;-65
2022/10/15 08:58:33;;;;;;;1.77;0.70;;;18.30;98.60;;;;;;5015098;28;20509;-65
2022/10/15 09:01:04;;;;;;;2.40;0.80;;;18.50;97.90;;;;;;5014919;28;20438;-65
2022/10/15 09:03:38;;;;;;;5.10;0.90;;;18.80;97.30;;;;;;5014884;28;20443;-64
2022/10/15 09:06:14;;;;;;;1.87;0.80;;;19.10;97.30;;;;;;5014826;28;20926;-64
2022/10/15 09:08:52;;;;;;;3.10;0.87;;;19.40;96.50;;;;;;5014775;28;20505;-64
2022/10/15 09:11:29;;;;;;;2.13;1.10;;;19.70;95.80;;;;;;5014438;28;20446;-64
2022/10/15 09:13:57;;;;;;;2.00;0.70;;;20.10;94.60;;;;;;5014962;28;20532;-66
2022/10/15 09:16:27;;;;;;;2.90;0.97;;;20.40;94.40;;;;;;5014544;28;20487;-66
2022/10/15 09:18:56;;;;;;;2.10;0.80;;;20.80;93.20;;;;;;5013099;28;20431;-65
2022/10/15 09:21:25;;;;;;;1.70;0.80;;;21.20;92.30;;;;;;5014739;28;20439;-67
2022/10/15 09:23:54;;;;;;;4.90;0.90;;;22.00;92.30;;;;;;5014520;28;20453;-65
2022/10/15 09:26:27;;;;;;;2.20;0.90;;;22.70;88.70;;;;;;5014460;28;20517;-65
2022/10/15 09:29:01;;;;;;;2.30;0.93;;;23.20;86.10;;;;;;5014337;28;20438;-67
2022/10/15 09:31:35;;;;;;;1.80;0.90;;;23.60;86.40;;;;;;5014467;28;20934;-65
2022/10/15 09:34:06;;;;;;;2.07;0.60;;;24.60;84.80;;;;;;5014218;28;20446;-65
2022/10/15 09:36:41;;;;;;;7.10;1.00;;;25.70;77.40;;;;;;5014043;28;20482;-66
2022/10/15 09:39:32;;;;;;;5.13;0.90;;;26.80;77.70;;;;;;5014273;28;20979;-65
2022/10/15 09:42:24;;;;;;;1.83;0.70;;;29.30;72.60;;;;;;5013932;28;20504;-67
2022/10/15 09:44:52;;;;;;;2.27;0.80;;;31.30;57.00;;;;;;5014440;28;20446;-64
2022/10/15 09:47:24;;;;;;;2.80;0.80;;;32.20;51.40;;;;;;5014212;28;20438;-64
2022/10/15 09:49:51;;;;;;;1.80;0.80;;;33.50;49.80;;;;;;5013916;28;20509;-64
2022/10/15 09:52:27;;;;;;;2.00;0.70;;;36.30;45.30;;;;;;5013960;28;20466;-64
2022/10/15 09:55:07;;;;;;;3.10;1.00;;;38.90;37.10;;;;;;5013844;28;20438;-64
2022/10/15 09:57:36;;;;;;;2.07;1.03;;;41.30;32.00;;;;;;5014068;28;20496;-65
2022/10/15 10:00:08;;;;;;;2.10;1.10;;;43.90;28.70;;;;;;5014143;28;20446;-65
2022/10/15 10:02:35;;;;;;;2.47;1.13;;;46.20;25.40;;;;;;5013514;28;20446;-64
2022/10/15 10:05:20;;;;;;;2.40;1.27;;;47.30;21.90;;;;;;5013360;28;20447;-65
2022/10/15 10:07:48;;;;;;;2.43;1.37;;;46.80;20.80;;;;;;5013710;28;20534;-64
2022/10/15 10:10:25;;;;;;;6.33;2.27;;;45.00;19.80;;;;;;5013339;28;20474;-64
2022/10/15 10:12:53;;;;;;;2.20;1.40;;;42.60;21.40;;;;;;5013625;28;20521;-64
2022/10/15 10:15:33;;;;;;;3.00;1.33;;;40.90;22.10;;;;;;5013866;28;20442;-64
2022/10/15 10:18:01;;;;;;;3.17;1.30;;;39.20;24.10;;;;;;5013603;28;20448;-64
2022/10/15 10:20:29;;;;;;;2.77;1.30;;;38.70;26.20;;;;;;5013711;28;20489;-64
2022/10/15 10:22:59;;;;;;;3.50;1.13;;;39.90;25.80;;;;;;5013534;28;20450;-64
2022/10/15 10:25:33;;;;;;;2.40;0.87;;;40.80;24.40;;;;;;5013103;28;20439;-64
2022/10/15 10:28:13;;;;;;;2.20;0.90;;;40.50;22.40;;;;;;5013580;28;20439;-64
2022/10/15 10:30:49;;;;;;;3.97;1.07;;;39.50;23.40;;;;;;5013013;28;20522;-64
2022/10/15 10:33:24;;;;;;;2.00;0.80;;;38.60;23.90;;;;;;5013624;28;21063;-63
2022/10/15 10:35:51;;;;;;;2.07;0.80;;;37.70;24.30;;;;;;5013575;28;20837;-64
2022/10/15 10:38:22;;;;;;;2.00;0.70;;;37.40;25.70;;;;;;5013411;28;20497;-63
2022/10/15 10:40:54;;;;;;;2.23;0.80;;;37.40;26.40;;;;;;5013631;28;20434;-63
2022/10/15 10:43:25;;;;;;;2.07;0.70;;;37.90;25.80;;;;;;5013714;28;20497;-63
2022/10/15 10:45:57;;;;;;;2.33;0.60;;;37.40;25.00;;;;;;5013627;28;20539;-63
2022/10/15 10:48:27;;;;;;;1.70;0.60;;;36.60;25.40;;;;;;5013402;28;20517;-64
2022/10/15 10:51:07;;;;;;;2.40;1.20;;;35.80;27.30;;;;;;5013421;28;20517;-64
2022/10/15 10:53:45;;;;;;;3.40;0.90;;;37.70;27.50;;;;;;5013107;28;20442;-66
2022/10/15 10:56:14;;;;;;;1.97;0.67;;;40.60;24.00;;;;;;5013168;28;20565;-64
2022/10/15 10:58:42;;;;;;;2.43;0.80;;;42.40;21.90;;;;;;5013190;28;20486;-64
2022/10/15 11:01:12;;;;;;;2.13;0.80;;;44.40;21.30;;;;;;5013063;28;20441;-64
2022/10/15 11:03:41;;;;;;;1.70;0.70;;;44.90;19.60;;;;;;5013488;28;20524;-64
2022/10/15 11:06:34;;;;;;;1.70;0.60;;;45.00;19.00;;;;;;5012881;28;20569;-64
2022/10/15 11:09:37;;;;;;;2.47;0.67;;;44.40;18.30;;;;;;5013229;28;20524;-65
2022/10/15 11:12:17;;;;;;;1.70;0.70;;;43.30;19.70;;;;;;5013151;28;20928;-64
2022/10/15 11:14:49;;;;;;;1.70;0.70;;;41.90;18.90;;;;;;5013201;28;20442;-64
2022/10/15 11:17:29;;;;;;;2.07;0.70;;;40.20;20.40;;;;;;5013207;28;20497;-63
2022/10/15 11:20:04;;;;;;;2.23;0.60;;;38.90;21.50;;;;;;5012910;28;20926;-63
2022/10/15 11:22:55;;;;;;;1.80;0.70;;;37.70;22.60;;;;;;5012909;28;20500;-63
2022/10/15 11:25:35;;;;;;;2.73;1.33;;;36.10;23.10;;;;;;5012937;28;20457;-64
2022/10/15 11:28:26;;;;;;;2.23;0.73;;;34.50;24.20;;;;;;5012946;28;20430;-63
2022/10/15 11:31:01;;;;;;;3.60;1.17;;;33.00;26.00;;;;;;5013282;28;20821;-63
2022/10/15 11:33:43;;;;;;;2.00;0.70;;;31.80;27.60;;;;;;5012746;28;20426;-63
2022/10/15 11:36:32;;;;;;;2.00;0.63;;;30.90;29.00;;;;;;5012915;28;20466;-63
2022/10/15 11:39:12;;;;;;;2.00;0.70;;;30.20;30.10;;;;;;5012830;28;20829;-67
2022/10/15 11:41:49;;;;;;;1.90;0.70;;;29.50;31.00;;;;;;5013466;28;20446;-62
2022/10/15 11:44:29;;;;;;;1.97;0.97;;;28.80;32.70;;;;;;5016269;28;20434;-63
2022/10/15 11:47:10;;;;;;;2.90;0.70;;;28.20;33.00;;;;;;5016660;28;20482;-63
2022/10/15 11:49:48;;;;;;;2.83;0.87;;;27.70;35.20;;;;;;5016274;28;20466;-63
2022/10/15 11:52:37;;;;;;;3.20;0.70;;;27.20;35.70;;;;;;5016027;28;20925;-63
2022/10/15 11:55:11;;;;;;;3.20;0.80;;;26.80;36.80;;;;;;5016110;28;20785;-63
2022/10/15 11:57:42;;;;;;;1.60;0.57;;;26.40;37.90;;;;;;5016189;28;20504;-63
2022/10/15 12:00:19;;;;;;;3.00;0.67;;;26.00;38.70;;;;;;5016054;28;20439;-62
2022/10/15 12:02:48;;;;;;;2.10;0.60;;;25.70;38.80;;;;;;5016142;28;20525;-63
2022/10/15 12:05:19;;;;;;;1.90;0.80;;;25.80;40.10;;;;;;5015503;28;20443;-62
2022/10/15 12:07:48;;;;;;;1.90;0.70;;;28.80;45.50;;;;;;5015948;28;20517;-63
2022/10/15 12:10:30;;;;;;;1.97;0.97;;;33.10;36.30;;;;;;5015927;28;21213;-63
2022/10/15 12:13:04;;;;;;;1.87;0.80;;;36.50;30.20;;;;;;5015816;28;20478;-63
2022/10/15 12:15:39;;;;;;;3.40;0.70;;;38.80;26.40;;;;;;5016076;28;20446;-64
2022/10/15 12:18:16;;;;;;;1.97;1.00;;;40.70;25.10;;;;;;5015903;28;20447;-64
2022/10/15 12:20:44;;;;;;;3.33;0.90;;;42.60;21.90;;;;;;5015827;28;20829;-64
2022/10/15 12:23:24;;;;;;;2.80;0.77;;;43.50;20.60;;;;;;5015416;28;20793;-64
2022/10/15 12:25:51;;;;;;;2.00;0.60;;;43.50;19.90;;;;;;5015608;28;20442;-64
2022/10/15 12:28:22;;;;;;;2.10;0.70;;;43.00;18.60;;;;;;5015608;28;20442;-63
2022/10/15 12:30:57;;;;;;;4.47;0.70;;;42.40;19.30;;;;;;5015402;28;20446;-63
2022/10/15 12:33:30;;;;;;;1.80;0.60;;;41.70;19.60;;;;;;5015344;28;20842;-64
2022/10/15 12:35:59;;;;;;;1.93;0.50;;;41.00;19.80;;;;;;5015249;28;20447;-64
2022/10/15 12:38:29;;;;;;;5.57;0.70;;;41.40;20.40;;;;;;5015165;28;20934;-64
2022/10/15 12:41:00;;;;;;;2.93;0.77;;;42.20;19.40;;;;;;5015276;28;20933;-65
2022/10/15 12:43:29;;;;;;;1.87;0.60;;;43.30;19.20;;;;;;5015297;28;20438;-65
2022/10/15 12:46:00;;;;;;;2.77;0.80;;;43.40;18.10;;;;;;5015141;28;20465;-64
2022/10/15 12:48:35;;;;;;;2.20;0.67;;;43.20;18.20;;;;;;5014809;28;20437;-65
2022/10/15 12:51:39;;;;;;;2.77;0.87;;;43.00;18.10;;;;;;5015226;28;20450;-64
2022/10/15 12:54:38;;;;;;;2.90;0.73;;;42.40;18.80;;;;;;5014533;28;20525;-64
2022/10/15 12:57:42;;;;;;;3.53;0.77;;;41.90;19.30;;;;;;5015049;28;20443;-64
2022/10/15 13:00:42;;;;;;;2.20;0.80;;;41.80;18.70;;;;;;5014903;28;20449;-64
2022/10/15 13:03:32;;;;;;;4.53;1.00;;;40.70;18.90;;;;;;5011310;28;20447;-64
2022/10/15 13:06:23;;;;;;;3.30;1.27;;;40.00;19.80;;;;;;5014079;28;20443;-66
2022/10/15 13:08:53;;;;;;;4.60;0.80;;;38.90;19.70;;;;;;5014729;28;20457;-63